createdAt,value
2019-01-23T00:01:47.711Z,30.75
2019-01-23T00:04:18.555Z,26.37
2019-01-23T00:06:52.315Z,32.05
2019-01-23T00:09:23.291Z,31.33
2019-01-23T00:11:54.147Z,29.25
2019-01-23T00:14:25.029Z,31.55
2019-01-23T00:16:56.230Z,32.98
2019-01-23T00:19:27.129Z,31.35
2019-01-23T00:21:59.081Z,32.48
2019-01-23T00:24:30.082Z,34.15
2019-01-23T00:27:00.992Z,31.35
2019-01-23T00:29:31.900Z,30.52
2019-01-23T00:32:02.845Z,31.48
2019-01-23T00:34:33.834Z,32.23
2019-01-23T00:37:04.776Z,34.23
2019-01-23T00:39:35.689Z,31.62
2019-01-23T00:42:06.594Z,30.25
2019-01-23T00:44:37.500Z,32.40
2019-01-23T00:47:08.449Z,34.60
2019-01-23T00:49:39.650Z,33.60
2019-01-23T00:52:10.713Z,31.35
2019-01-23T00:54:41.633Z,31.42
2019-01-23T00:57:12.545Z,30.85
2019-01-23T00:59:43.412Z,29.27
2019-01-23T01:02:14.308Z,31.15
2019-01-23T01:04:45.267Z,32.35
2019-01-23T01:07:16.840Z,32.90
2019-01-23T01:09:47.759Z,32.40
2019-01-23T01:12:18.755Z,32.23
2019-01-23T01:14:49.659Z,30.75
2019-01-23T01:17:20.611Z,33.23
2019-01-23T01:19:51.515Z,30.72
2019-01-23T01:22:22.398Z,35.85
2019-01-23T01:24:53.263Z,34.53
2019-01-23T01:27:24.133Z,33.08
2019-01-23T01:29:54.975Z,31.93
2019-01-23T01:32:25.783Z,32.48
2019-01-23T01:34:56.693Z,34.23
2019-01-23T01:37:27.637Z,33.67
2019-01-23T01:39:58.645Z,30.90
2019-01-23T01:42:29.572Z,30.70
2019-01-23T01:45:00.506Z,29.77
2019-01-23T01:47:31.458Z,31.75
2019-01-23T01:50:02.315Z,30.10
2019-01-23T01:52:33.196Z,30.65
2019-01-23T01:55:04.931Z,35.10
2019-01-23T01:57:36.447Z,34.78
2019-01-23T02:00:22.586Z,33.95
2019-01-23T02:02:53.421Z,33.18
2019-01-23T02:05:24.402Z,31.45
2019-01-23T02:07:55.241Z,35.20
2019-01-23T02:10:26.224Z,33.92
2019-01-23T02:12:57.181Z,32.42
2019-01-23T02:15:28.094Z,34.33
2019-01-23T02:17:59.054Z,36.20
2019-01-23T02:20:30.059Z,36.30
2019-01-23T02:23:00.950Z,31.02
2019-01-23T02:25:31.788Z,34.60
2019-01-23T02:28:02.721Z,33.83
2019-01-23T02:30:33.698Z,33.78
2019-01-23T02:33:04.598Z,34.65
2019-01-23T02:35:35.435Z,29.90
2019-01-23T02:38:06.242Z,33.92
2019-01-23T02:40:37.228Z,36.55
2019-01-23T02:43:08.107Z,31.40
2019-01-23T02:45:39.011Z,34.25
2019-01-23T02:48:09.968Z,34.85
2019-01-23T02:50:40.894Z,34.20
2019-01-23T02:53:11.951Z,32.60
2019-01-23T02:55:42.945Z,35.50
2019-01-23T02:58:13.899Z,32.33
2019-01-23T03:00:44.885Z,30.23
2019-01-23T03:03:15.693Z,33.10
2019-01-23T03:05:46.678Z,31.17
2019-01-23T03:08:17.553Z,30.30
2019-01-23T03:10:48.467Z,32.48
2019-01-23T03:13:19.358Z,33.08
2019-01-23T03:15:50.259Z,32.38
2019-01-23T03:18:21.144Z,31.30
2019-01-23T03:20:52.126Z,32.60
2019-01-23T03:23:22.959Z,34.50
2019-01-23T03:25:53.922Z,31.15
2019-01-23T03:28:24.802Z,33.67
2019-01-23T03:30:55.639Z,36.00
2019-01-23T03:33:26.592Z,35.65
2019-01-23T03:35:57.497Z,34.65
2019-01-23T03:38:28.412Z,36.17
2019-01-23T03:40:59.363Z,33.33
2019-01-23T03:43:30.275Z,33.00
2019-01-23T03:46:01.084Z,32.50
2019-01-23T03:48:31.993Z,33.53
2019-01-23T03:51:03.879Z,35.78
2019-01-23T03:53:34.877Z,33.73
2019-01-23T03:56:06.086Z,34.27
2019-01-23T03:58:36.932Z,35.60
2019-01-23T04:01:07.815Z,37.17
2019-01-23T04:03:38.736Z,32.78
2019-01-23T04:06:09.553Z,36.03
2019-01-23T04:08:40.507Z,34.20
2019-01-23T04:11:11.327Z,33.60
2019-01-23T04:13:42.242Z,31.77
2019-01-23T04:16:13.190Z,33.85
2019-01-23T04:18:44.107Z,33.90
2019-01-23T04:21:15.010Z,34.83
2019-01-23T04:23:46.067Z,35.10
2019-01-23T04:26:19.003Z,35.00
2019-01-23T04:28:49.607Z,33.55
2019-01-23T04:31:20.564Z,32.67
2019-01-23T04:33:51.475Z,31.37
2019-01-23T04:36:22.454Z,33.23
2019-01-23T04:38:53.294Z,38.08
2019-01-23T04:41:24.254Z,40.43
2019-01-23T04:43:55.231Z,37.67
2019-01-23T04:46:26.185Z,31.05
2019-01-23T04:48:57.105Z,34.10
2019-01-23T04:51:32.478Z,33.48
2019-01-23T04:54:03.457Z,30.20
2019-01-23T04:56:34.447Z,32.93
2019-01-23T04:59:05.496Z,34.27
2019-01-23T05:01:36.371Z,35.15
2019-01-23T05:04:07.306Z,35.40
2019-01-23T05:06:38.186Z,36.50
2019-01-23T05:09:09.193Z,36.28
2019-01-23T05:11:40.045Z,32.08
2019-01-23T05:14:11.089Z,32.55
2019-01-23T05:16:41.976Z,32.60
2019-01-23T05:19:12.875Z,31.30
2019-01-23T05:21:43.745Z,29.98
2019-01-23T05:24:14.742Z,30.80
2019-01-23T05:26:45.732Z,34.20
2019-01-23T05:29:16.673Z,34.58
2019-01-23T05:31:47.506Z,32.90
2019-01-23T05:34:18.489Z,33.83
2019-01-23T05:36:49.347Z,34.92
2019-01-23T05:39:20.406Z,31.33
2019-01-23T05:41:51.308Z,32.15
2019-01-23T05:44:22.115Z,34.08
2019-01-23T05:46:53.027Z,33.35
2019-01-23T05:49:23.875Z,33.30
2019-01-23T05:51:54.876Z,38.95
2019-01-23T05:54:25.745Z,34.73
2019-01-23T05:56:56.715Z,36.48
2019-01-23T05:59:27.533Z,35.17
2019-01-23T06:01:58.452Z,36.75
2019-01-23T06:04:29.269Z,40.35
2019-01-23T06:07:00.196Z,38.98
2019-01-23T06:09:31.239Z,39.48
2019-01-23T06:12:04.178Z,40.35
2019-01-23T06:14:35.059Z,39.60
2019-01-23T06:17:05.998Z,40.30
2019-01-23T06:19:36.922Z,40.28
2019-01-23T06:22:07.768Z,37.33
2019-01-23T06:24:38.723Z,39.50
2019-01-23T06:27:09.645Z,40.30
2019-01-23T06:29:40.526Z,41.40
2019-01-23T06:32:11.444Z,35.38
2019-01-23T06:34:42.330Z,38.70
2019-01-23T06:37:13.327Z,38.17
2019-01-23T06:39:44.216Z,38.20
2019-01-23T06:42:15.058Z,37.85
2019-01-23T06:44:45.877Z,40.23
2019-01-23T06:47:16.785Z,37.73
2019-01-23T06:49:47.768Z,42.88
2019-01-23T06:52:18.692Z,46.53
2019-01-23T06:54:49.538Z,42.80
2019-01-23T06:57:20.384Z,40.45
2019-01-23T06:59:51.354Z,40.08
2019-01-23T07:02:22.334Z,41.73
2019-01-23T07:04:53.252Z,39.90
2019-01-23T07:07:24.146Z,43.50
2019-01-23T07:09:55.160Z,42.93
2019-01-23T07:12:26.041Z,39.98
2019-01-23T07:14:56.947Z,46.20
2019-01-23T07:17:27.920Z,43.38
2019-01-23T07:19:58.839Z,42.05
2019-01-23T07:22:29.632Z,41.65
2019-01-23T07:25:00.669Z,40.48
2019-01-23T07:27:31.660Z,47.80
2019-01-23T07:30:02.626Z,42.90
2019-01-23T07:32:33.631Z,44.50
2019-01-23T07:35:06.347Z,42.23
2019-01-23T07:37:37.232Z,40.75
2019-01-23T07:40:10.422Z,43.63
2019-01-23T07:42:41.383Z,45.35
2019-01-23T07:45:17.020Z,41.88
2019-01-23T07:47:47.907Z,42.95
2019-01-23T07:50:18.815Z,42.73
2019-01-23T07:52:49.700Z,42.48
2019-01-23T07:55:21.742Z,44.40
2019-01-23T07:57:53.638Z,44.83
2019-01-23T08:00:31.347Z,39.40
2019-01-23T08:02:59.653Z,45.98
2019-01-23T08:05:30.496Z,41.02
2019-01-23T08:08:01.396Z,42.33
2019-01-23T08:10:32.370Z,46.13
2019-01-23T08:13:03.248Z,42.25
2019-01-23T08:15:35.628Z,41.30
2019-01-23T08:18:06.737Z,38.83
2019-01-23T08:20:37.754Z,42.00
2019-01-23T08:23:08.558Z,43.78
2019-01-23T08:25:39.467Z,37.90
2019-01-23T08:28:10.439Z,45.38
2019-01-23T08:30:41.351Z,39.00
2019-01-23T08:33:12.368Z,41.13
2019-01-23T08:35:43.315Z,40.95
2019-01-23T08:38:14.209Z,41.95
2019-01-23T08:40:45.193Z,44.42
2019-01-23T08:43:16.090Z,43.28
2019-01-23T08:45:47.062Z,44.70
2019-01-23T08:48:17.983Z,43.75
2019-01-23T08:50:48.889Z,41.85
2019-01-23T08:53:19.854Z,40.50
2019-01-23T08:55:53.664Z,38.95
2019-01-23T08:58:23.254Z,43.45
2019-01-23T09:00:54.158Z,40.17
2019-01-23T09:03:25.103Z,40.98
2019-01-23T09:05:55.944Z,38.35
2019-01-23T09:08:26.820Z,42.88
2019-01-23T09:10:57.674Z,35.35
2019-01-23T09:13:28.690Z,37.42
2019-01-23T09:15:59.603Z,36.88
2019-01-23T09:18:30.404Z,36.75
2019-01-23T09:21:02.308Z,38.17
2019-01-23T09:23:33.189Z,37.90
2019-01-23T09:26:04.094Z,36.98
2019-01-23T09:28:35.001Z,39.65
2019-01-23T09:31:19.254Z,36.17
2019-01-23T09:34:03.151Z,34.48
2019-01-23T09:36:44.186Z,37.23
2019-01-23T09:39:42.918Z,39.58
2019-01-23T09:42:57.087Z,39.33
2019-01-23T09:45:32.511Z,35.38
2019-01-23T09:48:16.564Z,34.48
2019-01-23T09:50:54.646Z,38.08
2019-01-23T09:53:32.759Z,38.10
2019-01-23T09:56:03.787Z,35.15
2019-01-23T09:58:34.644Z,35.35
2019-01-23T10:01:06.892Z,34.05
2019-01-23T10:03:38.127Z,34.85
2019-01-23T10:06:08.984Z,37.00
2019-01-23T10:08:39.961Z,42.23
2019-01-23T10:11:10.788Z,46.37
2019-01-23T10:13:41.606Z,38.02
2019-01-23T10:16:12.514Z,36.28
2019-01-23T10:18:43.319Z,33.63
2019-01-23T10:21:15.532Z,35.90
2019-01-23T10:23:47.713Z,34.70
2019-01-23T10:26:19.740Z,32.70
2019-01-23T10:28:50.698Z,31.52
2019-01-23T10:31:21.571Z,36.23
2019-01-23T10:33:52.509Z,32.70
2019-01-23T10:36:23.371Z,33.80
2019-01-23T10:38:54.365Z,37.70
2019-01-23T10:41:25.961Z,39.58
2019-01-23T10:43:56.896Z,30.95
2019-01-23T10:46:27.870Z,29.70
2019-01-23T10:48:58.741Z,29.57
2019-01-23T10:51:29.648Z,35.10
2019-01-23T10:54:00.462Z,40.17
2019-01-23T10:56:31.439Z,37.48
2019-01-23T10:59:02.317Z,35.28
2019-01-23T11:01:33.293Z,34.33
2019-01-23T11:04:04.163Z,32.25
2019-01-23T11:06:35.146Z,33.78
2019-01-23T11:09:08.017Z,32.35
2019-01-23T11:11:38.929Z,38.30
2019-01-23T11:14:09.852Z,33.18
2019-01-23T11:16:40.729Z,33.25
2019-01-23T11:19:12.735Z,36.50
2019-01-23T11:21:43.581Z,38.00
2019-01-23T11:24:14.487Z,32.00
2019-01-23T11:26:45.480Z,33.90
2019-01-23T11:29:16.360Z,31.75
2019-01-23T11:31:47.263Z,31.50
2019-01-23T11:34:18.080Z,32.67
2019-01-23T11:36:49.009Z,34.45
2019-01-23T11:39:19.820Z,30.97
2019-01-23T11:41:50.760Z,31.37
2019-01-23T11:44:21.673Z,66.72
2019-01-23T11:46:52.575Z,33.35
2019-01-23T11:49:23.398Z,37.83
2019-01-23T11:51:54.236Z,32.23
2019-01-23T11:54:25.145Z,33.98
2019-01-23T11:56:56.064Z,31.10
2019-01-23T11:59:26.938Z,34.08
2019-01-23T12:01:57.911Z,30.32
2019-01-23T12:04:28.788Z,30.10
2019-01-23T12:06:59.625Z,30.57
2019-01-23T12:09:30.471Z,32.80
2019-01-23T12:12:01.300Z,31.87
2019-01-23T12:14:32.195Z,33.85
2019-01-23T12:17:03.028Z,34.30
2019-01-23T12:19:33.930Z,32.48
2019-01-23T12:22:04.910Z,32.65
2019-01-23T12:24:35.716Z,33.78
2019-01-23T12:27:06.594Z,32.42
2019-01-23T12:29:37.437Z,40.03
2019-01-23T12:32:08.338Z,35.38
2019-01-23T12:34:39.215Z,35.35
2019-01-23T12:37:10.123Z,34.25
2019-01-23T12:39:41.024Z,32.05
2019-01-23T12:42:11.875Z,40.40
2019-01-23T12:44:42.691Z,32.85
2019-01-23T12:47:13.528Z,33.83
2019-01-23T12:49:44.575Z,31.05
2019-01-23T12:52:15.473Z,31.87
2019-01-23T12:54:46.523Z,32.73
2019-01-23T12:57:17.502Z,31.68
2019-01-23T12:59:48.374Z,33.90
2019-01-23T13:02:19.214Z,32.70
2019-01-23T13:04:50.162Z,29.15
2019-01-23T13:07:20.999Z,30.27
2019-01-23T13:09:51.949Z,30.00
2019-01-23T13:12:22.922Z,27.50
2019-01-23T13:14:53.798Z,30.95
2019-01-23T13:17:26.351Z,31.77
2019-01-23T13:19:57.242Z,31.52
2019-01-23T13:22:28.226Z,32.13
2019-01-23T13:24:59.037Z,31.50
2019-01-23T13:27:30.090Z,43.85
2019-01-23T13:30:00.899Z,38.25
2019-01-23T13:32:32.802Z,38.05
2019-01-23T13:35:03.741Z,33.23
2019-01-23T13:37:34.639Z,35.23
2019-01-23T13:40:12.975Z,35.30
2019-01-23T13:42:43.965Z,34.08
2019-01-23T13:45:14.964Z,34.65
2019-01-23T13:47:45.870Z,32.83
2019-01-23T13:50:16.920Z,32.15
2019-01-23T13:52:47.922Z,32.05
2019-01-23T13:55:22.664Z,33.95
2019-01-23T13:57:53.562Z,30.32
2019-01-23T14:00:31.660Z,36.25
2019-01-23T14:03:02.746Z,41.23
2019-01-23T14:05:33.714Z,34.05
2019-01-23T14:08:05.514Z,29.65
2019-01-23T14:10:36.394Z,34.65
2019-01-23T14:13:07.477Z,31.27
2019-01-23T14:15:40.166Z,31.85
2019-01-23T14:18:11.061Z,30.65
2019-01-23T14:20:42.007Z,30.37
2019-01-23T14:23:12.910Z,29.92
2019-01-23T14:25:43.851Z,30.48
2019-01-23T14:28:14.935Z,27.20
2019-01-23T14:30:45.736Z,28.20
2019-01-23T14:33:16.573Z,29.40
2019-01-23T14:35:47.375Z,32.00
2019-01-23T14:38:18.217Z,32.03
2019-01-23T14:40:49.093Z,32.08
2019-01-23T14:43:20.012Z,28.07
2019-01-23T14:45:50.946Z,30.45
2019-01-23T14:48:21.851Z,29.10
2019-01-23T14:50:52.728Z,30.10
2019-01-23T14:53:23.660Z,30.37
2019-01-23T14:55:54.505Z,28.40
2019-01-23T14:58:25.413Z,29.50
2019-01-23T15:00:56.356Z,29.85
2019-01-23T15:03:27.266Z,28.32
2019-01-23T15:05:58.138Z,29.02
2019-01-23T15:08:29.036Z,28.85
2019-01-23T15:11:00.782Z,28.90
2019-01-23T15:13:31.770Z,28.45
2019-01-23T15:16:02.728Z,28.98
2019-01-23T15:18:33.629Z,27.85
2019-01-23T15:21:04.577Z,28.65
2019-01-23T15:23:36.501Z,30.10
2019-01-23T15:26:07.500Z,28.20
2019-01-23T15:28:38.544Z,27.75
2019-01-23T15:31:09.413Z,26.42
2019-01-23T15:33:40.255Z,26.93
2019-01-23T15:36:11.131Z,26.23
2019-01-23T15:38:42.039Z,28.00
2019-01-23T15:41:13.002Z,27.60
2019-01-23T15:43:44.035Z,28.23
2019-01-23T15:46:14.915Z,24.92
2019-01-23T15:48:45.817Z,28.60
2019-01-23T15:51:16.694Z,25.77
2019-01-23T15:53:47.538Z,25.92
2019-01-23T15:56:18.517Z,27.65
2019-01-23T15:58:49.423Z,24.72
2019-01-23T16:01:20.356Z,29.48
2019-01-23T16:03:51.381Z,25.08
2019-01-23T16:06:22.335Z,27.07
2019-01-23T16:08:53.167Z,36.68
2019-01-23T16:11:23.984Z,26.15
2019-01-23T16:13:54.959Z,25.80
2019-01-23T16:16:25.843Z,26.05
2019-01-23T16:18:56.753Z,26.77
2019-01-23T16:21:27.681Z,28.05
2019-01-23T16:23:58.687Z,25.57
2019-01-23T16:26:29.823Z,25.77
2019-01-23T16:29:00.769Z,30.80
2019-01-23T16:31:31.669Z,25.60
2019-01-23T16:34:03.511Z,26.68
2019-01-23T16:36:34.484Z,28.10
2019-01-23T16:39:07.905Z,27.52
2019-01-23T16:41:39.059Z,36.75
2019-01-23T16:44:09.867Z,45.30
2019-01-23T16:46:40.792Z,29.05
2019-01-23T16:49:11.604Z,27.62
2019-01-23T16:51:42.505Z,35.98
2019-01-23T16:54:13.420Z,29.65
2019-01-23T16:56:44.368Z,27.10
2019-01-23T16:59:15.321Z,28.75
2019-01-23T17:01:46.305Z,45.08
2019-01-23T17:04:17.247Z,29.75
2019-01-23T17:06:48.147Z,29.60
2019-01-23T17:09:19.036Z,27.85
2019-01-23T17:11:50.047Z,25.32
2019-01-23T17:14:21.130Z,26.10
2019-01-23T17:16:52.094Z,27.67
2019-01-23T17:19:22.900Z,26.62
2019-01-23T17:21:53.777Z,28.50
2019-01-23T17:24:24.574Z,26.20
2019-01-23T17:26:55.514Z,27.98
2019-01-23T17:29:30.677Z,31.93
2019-01-23T17:32:02.166Z,43.98
2019-01-23T17:34:33.160Z,28.60
2019-01-23T17:37:04.113Z,27.87
2019-01-23T17:39:35.066Z,31.42
2019-01-23T17:42:07.304Z,32.13
2019-01-23T17:44:39.264Z,28.47
2019-01-23T17:47:10.168Z,26.90
2019-01-23T17:49:41.064Z,28.98
2019-01-23T17:52:12.013Z,26.80
2019-01-23T17:54:43.013Z,30.20
2019-01-23T17:57:13.889Z,29.70
2019-01-23T17:59:45.068Z,31.68
2019-01-23T18:02:16.056Z,35.15
2019-01-23T18:04:47.081Z,28.95
2019-01-23T18:07:18.096Z,27.15
2019-01-23T18:09:48.991Z,28.92
2019-01-23T18:12:19.939Z,28.87
2019-01-23T18:14:50.962Z,28.32
2019-01-23T18:17:21.943Z,28.25
2019-01-23T18:19:52.821Z,26.07
2019-01-23T18:22:23.856Z,25.23
2019-01-23T18:24:54.843Z,27.85
2019-01-23T18:27:25.755Z,33.95
2019-01-23T18:29:56.730Z,30.37
2019-01-23T18:32:27.857Z,29.85
2019-01-23T18:35:05.741Z,27.00
2019-01-23T18:38:03.766Z,26.70
2019-01-23T18:41:00.255Z,25.35
2019-01-23T18:43:59.546Z,26.17
2019-01-23T18:46:44.921Z,27.30
2019-01-23T18:49:34.981Z,26.95
2019-01-23T18:52:12.961Z,28.02
2019-01-23T18:54:45.058Z,26.90
2019-01-23T18:57:26.178Z,26.55
2019-01-23T18:59:59.402Z,26.07
2019-01-23T19:02:29.960Z,27.67
2019-01-23T19:05:00.839Z,25.02
2019-01-23T19:07:31.840Z,29.90
2019-01-23T19:10:02.786Z,24.98
2019-01-23T19:12:33.906Z,24.07
2019-01-23T19:15:07.812Z,27.50
2019-01-23T19:17:38.838Z,27.87
2019-01-23T19:20:17.048Z,28.45
2019-01-23T19:22:48.425Z,27.77
2019-01-23T19:25:19.305Z,28.90
2019-01-23T19:27:50.281Z,25.97
2019-01-23T19:30:23.431Z,29.95
2019-01-23T19:32:54.510Z,27.02
2019-01-23T19:35:25.400Z,27.22
2019-01-23T19:37:56.290Z,29.12
2019-01-23T19:40:28.280Z,28.35
2019-01-23T19:42:59.358Z,28.32
2019-01-23T19:45:30.474Z,31.35
2019-01-23T19:48:02.401Z,32.23
2019-01-23T19:50:33.338Z,30.68
2019-01-23T19:53:04.415Z,30.80
2019-01-23T19:55:35.445Z,33.00
2019-01-23T19:58:07.638Z,31.95
2019-01-23T20:00:38.582Z,32.15
2019-01-23T20:03:09.437Z,29.80
2019-01-23T20:05:40.473Z,31.75
2019-01-23T20:08:11.311Z,29.63
2019-01-23T20:10:42.639Z,30.05
2019-01-23T20:13:13.672Z,31.70
2019-01-23T20:15:44.554Z,29.05
2019-01-23T20:18:15.531Z,30.68
2019-01-23T20:20:47.383Z,33.88
2019-01-23T20:23:18.565Z,30.30
2019-01-23T20:25:49.543Z,32.42
2019-01-23T20:28:20.463Z,31.68
2019-01-23T20:30:51.551Z,31.75
2019-01-23T20:33:27.939Z,32.17
2019-01-23T20:35:55.368Z,33.20
2019-01-23T20:38:26.402Z,33.00
2019-01-23T20:40:57.222Z,31.45
2019-01-23T20:43:29.908Z,27.60
2019-01-23T20:46:00.986Z,27.20
2019-01-23T20:48:32.174Z,26.42
2019-01-23T20:51:03.149Z,24.27
2019-01-23T20:53:34.059Z,20.30
2019-01-23T20:56:05.030Z,21.45
2019-01-23T20:58:35.899Z,23.45
2019-01-23T21:01:06.929Z,21.05
2019-01-23T21:03:37.865Z,21.55
2019-01-23T21:06:08.708Z,23.83
2019-01-23T21:08:39.750Z,25.68
2019-01-23T21:11:11.652Z,21.57
2019-01-23T21:13:42.577Z,20.52
2019-01-23T21:16:13.445Z,22.40
2019-01-23T21:18:44.423Z,24.15
2019-01-23T21:21:15.300Z,25.37
2019-01-23T21:23:46.199Z,22.50
2019-01-23T21:26:17.129Z,25.55
2019-01-23T21:28:48.102Z,22.80
2019-01-23T21:31:19.215Z,23.00
2019-01-23T21:33:50.228Z,23.62
2019-01-23T21:36:21.105Z,24.27
2019-01-23T21:38:52.004Z,25.23
2019-01-23T21:41:22.877Z,26.62
2019-01-23T21:43:53.857Z,23.90
2019-01-23T21:46:24.732Z,27.30
2019-01-23T21:48:55.659Z,27.50
2019-01-23T21:51:26.460Z,25.68
2019-01-23T21:53:57.438Z,27.20
2019-01-23T21:56:28.385Z,23.92
2019-01-23T21:58:59.298Z,25.60
2019-01-23T22:01:30.206Z,26.73
2019-01-23T22:04:02.660Z,26.15
2019-01-23T22:06:33.528Z,24.27
2019-01-23T22:09:06.002Z,24.40
2019-01-23T22:11:43.492Z,25.80
2019-01-23T22:14:12.298Z,23.12
2019-01-23T22:16:43.257Z,24.72
2019-01-23T22:19:17.357Z,24.92
2019-01-23T22:21:48.333Z,24.07
2019-01-23T22:24:19.320Z,23.07
2019-01-23T22:26:50.192Z,25.35
2019-01-23T22:29:21.025Z,23.52
2019-01-23T22:31:51.903Z,25.37
2019-01-23T22:34:22.954Z,26.57
2019-01-23T22:36:53.923Z,23.40
2019-01-23T22:39:24.871Z,23.92
2019-01-23T22:41:55.848Z,25.90
2019-01-23T22:44:26.833Z,25.32
2019-01-23T22:46:57.785Z,26.55
2019-01-23T22:49:28.901Z,23.42
2019-01-23T22:51:59.764Z,24.90
2019-01-23T22:54:30.687Z,27.25
2019-01-23T22:57:01.660Z,24.55
2019-01-23T22:59:32.620Z,25.82
2019-01-23T23:02:03.674Z,23.57
2019-01-23T23:04:34.772Z,23.47
2019-01-23T23:07:05.919Z,24.72
2019-01-23T23:09:36.765Z,24.15
2019-01-23T23:12:07.563Z,20.82
2019-01-23T23:14:38.528Z,22.27
2019-01-23T23:17:11.051Z,24.77
2019-01-23T23:19:41.961Z,24.27
2019-01-23T23:22:12.916Z,23.80
2019-01-23T23:24:43.858Z,22.73
2019-01-23T23:27:16.227Z,20.65
2019-01-23T23:29:47.196Z,23.07
2019-01-23T23:32:18.223Z,24.67
2019-01-23T23:34:49.103Z,23.12
2019-01-23T23:37:19.996Z,25.92
2019-01-23T23:39:50.865Z,23.75
2019-01-23T23:42:21.833Z,25.37
2019-01-23T23:44:52.785Z,22.77
2019-01-23T23:47:23.682Z,24.32
2019-01-23T23:49:54.593Z,25.55
2019-01-23T23:52:25.499Z,22.87
2019-01-23T23:54:56.545Z,25.82
2019-01-23T23:57:27.789Z,23.00
2019-01-23T23:59:58.589Z,23.52
